createdAt,value
2022-12-11T00:04:59.312Z,91.3
2022-12-11T00:09:59.313Z,91.6
2022-12-11T00:14:59.322Z,91.7
2022-12-11T00:19:59.313Z,91.5
2022-12-11T00:24:59.308Z,91.5
2022-12-11T00:29:59.336Z,91.4
2022-12-11T00:34:59.319Z,91.2
2022-12-11T00:39:59.324Z,91.1
2022-12-11T00:44:59.302Z,91.2
2022-12-11T00:49:59.302Z,91.4
2022-12-11T00:54:59.320Z,91.3
2022-12-11T00:59:59.337Z,91.3
2022-12-11T01:04:59.302Z,91.3
2022-12-11T01:09:59.299Z,91.3
2022-12-11T01:14:59.310Z,91.3
2022-12-11T01:19:59.328Z,91.3
2022-12-11T01:24:59.319Z,91.3
2022-12-11T01:29:59.294Z,91.5
2022-12-11T01:34:59.301Z,91.7
2022-12-11T01:39:59.366Z,91.7
2022-12-11T01:44:59.365Z,91.7
2022-12-11T01:49:59.300Z,91.8
2022-12-11T01:54:59.320Z,91.8
2022-12-11T01:59:59.312Z,91.7
2022-12-11T02:04:59.348Z,91.9
2022-12-11T02:09:59.311Z,91.9
2022-12-11T02:14:59.315Z,91.9
2022-12-11T02:19:59.305Z,92.1
2022-12-11T02:24:59.329Z,92.2
2022-12-11T02:29:59.313Z,92.1
2022-12-11T02:34:59.357Z,92.4
2022-12-11T02:39:59.311Z,92.5
2022-12-11T02:44:59.338Z,92.5
2022-12-11T02:49:59.310Z,92.6
2022-12-11T02:54:59.322Z,92.6
2022-12-11T02:59:59.321Z,92.8
2022-12-11T03:04:59.360Z,92.9
2022-12-11T03:09:59.316Z,93
2022-12-11T03:14:59.336Z,93.1
2022-12-11T03:19:59.333Z,93.4
2022-12-11T03:24:59.358Z,93.6
2022-12-11T03:29:59.323Z,93.8
2022-12-11T03:34:59.468Z,93.9
2022-12-11T03:39:59.317Z,94
2022-12-11T03:44:59.358Z,94.1
2022-12-11T03:49:59.325Z,94.1
2022-12-11T03:54:59.334Z,94.5
2022-12-11T03:59:59.332Z,94.8
2022-12-11T04:04:59.352Z,94.9
2022-12-11T04:09:59.333Z,95
2022-12-11T04:14:59.328Z,95.1
2022-12-11T04:19:59.329Z,95.2
2022-12-11T04:24:59.373Z,95.1
2022-12-11T04:29:59.315Z,95.1
2022-12-11T04:34:59.334Z,95.3
2022-12-11T04:39:59.387Z,95.4
2022-12-11T04:44:59.357Z,95.6
2022-12-11T04:49:59.332Z,95.5
2022-12-11T04:54:59.341Z,95.4
2022-12-11T04:59:59.324Z,95.4
2022-12-11T05:04:59.365Z,95.4
2022-12-11T05:09:59.326Z,95.5
2022-12-11T05:14:59.335Z,95.4
2022-12-11T05:19:59.323Z,95
2022-12-11T05:24:59.387Z,94.7
2022-12-11T05:29:59.758Z,94.5
2022-12-11T05:34:59.331Z,94.4
2022-12-11T05:39:59.390Z,94.4
2022-12-11T05:44:59.363Z,94.3
2022-12-11T05:49:59.341Z,94.2
2022-12-11T05:54:59.371Z,94.4
2022-12-11T05:59:59.334Z,94.2
2022-12-11T06:04:59.377Z,93.4
2022-12-11T06:09:59.333Z,92.3
2022-12-11T06:14:59.353Z,91.2
2022-12-11T06:19:59.365Z,90.4
2022-12-11T06:24:59.393Z,88.9
2022-12-11T06:29:59.359Z,88.8
2022-12-11T06:34:59.363Z,89
2022-12-11T06:39:59.358Z,89.6
2022-12-11T06:44:59.382Z,90
2022-12-11T06:49:59.350Z,88
2022-12-11T06:54:59.363Z,85.6
2022-12-11T06:59:59.366Z,82
2022-12-11T07:04:59.386Z,82.5
2022-12-11T07:10:04.169Z,82.2
2022-12-11T07:14:59.384Z,82.5
2022-12-11T07:19:59.430Z,82.5
2022-12-11T07:24:59.459Z,81.8
2022-12-11T07:29:59.511Z,81
2022-12-11T07:34:59.594Z,81
2022-12-11T07:39:59.583Z,81
2022-12-11T07:44:59.761Z,81
2022-12-11T07:49:59.694Z,81
2022-12-11T07:54:59.812Z,81
2022-12-11T07:59:59.851Z,81
2022-12-11T08:04:59.770Z,81
2022-12-11T08:09:59.981Z,81
2022-12-11T08:14:59.984Z,81
2022-12-11T08:19:59.824Z,81
2022-12-11T08:25:00.520Z,81
2022-12-11T08:30:00.125Z,81
2022-12-11T08:35:00.403Z,81
2022-12-11T08:40:00.036Z,81
2022-12-11T08:45:00.089Z,81
2022-12-11T08:50:00.081Z,81
2022-12-11T08:55:00.366Z,81
2022-12-11T09:00:00.191Z,81
2022-12-11T09:05:00.157Z,81
2022-12-11T09:10:00.096Z,81
2022-12-11T09:15:00.081Z,81
2022-12-11T09:20:00.074Z,81
2022-12-11T09:25:00.113Z,81
2022-12-11T09:30:00.088Z,81
2022-12-11T09:35:00.275Z,81
2022-12-11T09:40:05.689Z,81
2022-12-11T09:45:00.267Z,81
2022-12-11T09:50:00.146Z,81
2022-12-11T09:55:00.389Z,79.7
2022-12-11T10:00:04.674Z,80
2022-12-11T10:05:00.416Z,80
2022-12-11T10:10:00.215Z,80.1
2022-12-11T10:15:00.411Z,79.9
2022-12-11T10:20:00.246Z,80.1
2022-12-11T10:25:10.985Z,80.5
2022-12-11T10:30:00.241Z,80.6
2022-12-11T10:35:00.313Z,80.9
2022-12-11T10:40:00.451Z,81.1
2022-12-11T10:45:00.311Z,81
2022-12-11T10:50:00.247Z,81
2022-12-11T10:55:00.322Z,81.2
2022-12-11T11:00:00.227Z,81.1
2022-12-11T11:05:00.378Z,81.2
2022-12-11T11:10:00.220Z,81.3
2022-12-11T11:15:00.223Z,81.5
2022-12-11T11:20:00.233Z,81.6
2022-12-11T11:25:00.244Z,81.8
2022-12-11T11:30:00.231Z,82.1
2022-12-11T11:35:00.232Z,82.3
2022-12-11T11:40:00.557Z,82.4
2022-12-11T11:45:00.269Z,82.5
2022-12-11T11:50:00.253Z,82.7
2022-12-11T11:55:00.248Z,82.4
2022-12-11T12:00:00.327Z,82.5
2022-12-11T12:05:00.300Z,82.8
2022-12-11T12:10:00.378Z,83
2022-12-11T12:15:00.281Z,83.1
2022-12-11T12:20:00.227Z,83.7
2022-12-11T12:25:00.251Z,83.4
2022-12-11T12:30:00.214Z,82.7
2022-12-11T12:35:00.275Z,82.8
2022-12-11T12:40:00.320Z,82.8
2022-12-11T12:45:00.427Z,82.8
2022-12-11T12:50:00.247Z,83.1
2022-12-11T12:55:00.255Z,83
2022-12-11T13:00:00.250Z,83.2
2022-12-11T13:05:00.294Z,83.4
2022-12-11T13:10:00.251Z,83.2
2022-12-11T13:15:00.337Z,83.3
2022-12-11T13:20:00.255Z,83.4
2022-12-11T13:25:00.282Z,83.8
2022-12-11T13:30:00.245Z,84
2022-12-11T13:35:00.294Z,84
2022-12-11T13:40:00.235Z,84
2022-12-11T13:45:00.272Z,84.3
2022-12-11T13:50:00.252Z,84.7
2022-12-11T13:55:00.341Z,84.7
2022-12-11T14:00:00.244Z,84.9
2022-12-11T14:05:00.247Z,84.8
2022-12-11T14:10:00.240Z,85.1
2022-12-11T14:15:00.366Z,85.5
2022-12-11T14:20:00.228Z,85.6
2022-12-11T14:25:00.273Z,85.3
2022-12-11T14:30:00.233Z,85.6
2022-12-11T14:35:00.241Z,85.7
2022-12-11T14:40:00.233Z,86.3
2022-12-11T14:45:00.389Z,86.5
2022-12-11T14:50:00.230Z,86.5
2022-12-11T14:55:00.404Z,87.1
2022-12-11T15:00:00.231Z,87
2022-12-11T15:05:00.259Z,87.3
2022-12-11T15:10:00.239Z,87.7
2022-12-11T15:15:00.232Z,87.5
2022-12-11T15:20:00.382Z,87.5
2022-12-11T15:25:00.274Z,87.8
2022-12-11T15:30:00.219Z,88.3
2022-12-11T15:35:00.353Z,88.2
2022-12-11T15:40:00.216Z,88.7
2022-12-11T15:45:00.304Z,88.7
2022-12-11T15:50:00.266Z,88.9
2022-12-11T15:55:00.337Z,89
2022-12-11T16:00:00.361Z,89.1
2022-12-11T16:05:00.283Z,89
2022-12-11T16:10:00.385Z,89.3
2022-12-11T16:15:00.280Z,89.6
2022-12-11T16:20:00.284Z,89.6
2022-12-11T16:25:00.381Z,89.7
2022-12-11T16:30:00.281Z,89.6
2022-12-11T16:35:00.347Z,89.6
2022-12-11T16:40:00.411Z,90
2022-12-11T16:45:00.391Z,90.1
2022-12-11T16:50:00.304Z,90.3
2022-12-11T16:55:00.459Z,90.6
2022-12-11T17:00:00.368Z,90.8
2022-12-11T17:05:00.384Z,91.1
2022-12-11T17:10:00.454Z,91.4
2022-12-11T17:15:00.369Z,91.5
2022-12-11T17:20:00.370Z,91.8
2022-12-11T17:25:00.378Z,92
2022-12-11T17:30:00.489Z,92.3
2022-12-11T17:35:00.346Z,92.5
2022-12-11T17:40:00.348Z,92.7
2022-12-11T17:45:00.400Z,92.8
2022-12-11T17:50:00.355Z,92.9
2022-12-11T17:55:00.410Z,93.1
2022-12-11T18:00:00.338Z,93
2022-12-11T18:05:00.341Z,93.2
2022-12-11T18:10:00.455Z,93.2
2022-12-11T18:15:00.335Z,93.4
2022-12-11T18:20:00.351Z,93.3
2022-12-11T18:25:02.766Z,93.2
2022-12-11T18:30:00.362Z,93.3
2022-12-11T18:35:00.358Z,93.4
2022-12-11T18:40:00.355Z,93.5
2022-12-11T18:45:00.334Z,93.8
2022-12-11T18:50:05.741Z,94.1
2022-12-11T18:55:00.360Z,94.1
2022-12-11T19:00:00.328Z,94.3
2022-12-11T19:05:00.486Z,94.4
2022-12-11T19:10:00.413Z,94.3
2022-12-11T19:15:00.377Z,94.2
2022-12-11T19:20:02.552Z,94.1
2022-12-11T19:25:00.321Z,94
2022-12-11T19:30:00.339Z,94.2
2022-12-11T19:35:00.326Z,94.2
2022-12-11T19:40:00.313Z,94.1
2022-12-11T19:45:00.324Z,94
2022-12-11T19:50:00.351Z,94.2
2022-12-11T19:55:00.323Z,94.2
2022-12-11T20:00:00.327Z,93.9
2022-12-11T20:05:00.322Z,93.8
2022-12-11T20:10:00.348Z,93.8
2022-12-11T20:15:00.317Z,93.8
2022-12-11T20:20:00.314Z,93.6
2022-12-11T20:25:00.300Z,93.8
2022-12-11T20:30:00.344Z,93.9
2022-12-11T20:35:00.311Z,94.2
2022-12-11T20:40:00.309Z,94.4
2022-12-11T20:45:00.307Z,94.4
2022-12-11T20:50:00.325Z,94.7
2022-12-11T20:55:00.463Z,94.5
2022-12-11T21:00:00.303Z,94.7
2022-12-11T21:05:00.299Z,94.7
2022-12-11T21:10:00.323Z,94.6
2022-12-11T21:15:00.295Z,94.9
2022-12-11T21:20:00.297Z,95.1
2022-12-11T21:25:00.306Z,95.7
2022-12-11T21:30:00.325Z,96
2022-12-11T21:35:00.284Z,96.4
2022-12-11T21:40:00.294Z,96.2
2022-12-11T21:50:00.409Z,96
2022-12-11T21:55:00.504Z,96.1
2022-12-11T22:00:00.285Z,96.2
2022-12-11T22:05:00.284Z,96.4
2022-12-11T22:10:00.305Z,96.7
2022-12-11T22:15:00.296Z,96.9
2022-12-11T22:20:00.275Z,97.2
2022-12-11T22:25:00.276Z,97.6
2022-12-11T22:30:00.300Z,97.6
2022-12-11T22:35:00.276Z,98
2022-12-11T22:40:00.269Z,98.8
2022-12-11T22:45:00.291Z,99.3
2022-12-11T22:50:00.301Z,99.5
2022-12-11T22:55:00.283Z,99.4
2022-12-11T23:00:00.277Z,99.6
2022-12-11T23:05:00.263Z,99.7
2022-12-11T23:10:00.258Z,99.5
2022-12-11T23:15:00.320Z,99.5
2022-12-11T23:20:00.254Z,99.5
2022-12-11T23:25:00.320Z,99.6
2022-12-11T23:30:00.248Z,99.9
2022-12-11T23:35:00.281Z,99.9
2022-12-11T23:40:00.246Z,99.9
2022-12-11T23:45:00.255Z,99.9
2022-12-11T23:50:00.252Z,99.9
2022-12-11T23:55:00.387Z,99.9
